Time;durP1;ratioP1;P1;durP2;ratioP2;P2;SDS_P1;SDS_P2;PMS_P1;PMS_P2;Temp;Humidity;BMP_temperature;BMP_pressure;BME280_temperature;BME280_humidity;BME280_pressure;Samples;Min_cycle;Max_cycle;Signal;HPM_P1;HPM_P2
2023/11/18 00:01:21;;;;;;;28.27;14.97;;;7.50;99.90;;;;;;7286436;19;20194;-77
2023/11/18 00:03:46;;;;;;;30.07;15.93;;;7.50;99.90;;;;;;7286042;19;20530;-77
2023/11/18 00:06:12;;;;;;;27.30;15.50;;;7.60;99.90;;;;;;7287167;19;20204;-78
2023/11/18 00:08:39;;;;;;;28.87;14.77;;;7.60;99.90;;;;;;7287202;19;20654;-77
2023/11/18 00:11:04;;;;;;;31.83;16.33;;;7.70;99.90;;;;;;7309296;19;20757;-77
2023/11/18 00:13:30;;;;;;;29.00;15.93;;;7.70;99.90;;;;;;7287119;19;20189;-77
2023/11/18 00:15:57;;;;;;;30.80;15.73;;;7.80;99.90;;;;;;7287188;19;20182;-77
2023/11/18 00:18:23;;;;;;;32.40;15.13;;;7.70;99.90;;;;;;7286827;19;20541;-77
2023/11/18 00:20:50;;;;;;;31.63;15.60;;;7.60;99.90;;;;;;7285383;19;20192;-77
2023/11/18 00:23:17;;;;;;;31.00;15.70;;;7.60;99.90;;;;;;7286490;19;20210;-77
2023/11/18 00:25:45;;;;;;;31.77;14.87;;;7.50;99.90;;;;;;7287266;19;20185;-77
2023/11/18 00:28:11;;;;;;;28.00;14.10;;;7.50;99.90;;;;;;7287724;19;20200;-77
2023/11/18 00:30:38;;;;;;;25.03;14.73;;;7.50;99.90;;;;;;7286604;19;20300;-77
2023/11/18 00:33:05;;;;;;;30.43;14.17;;;7.60;99.90;;;;;;7306374;19;20213;-77
2023/11/18 00:35:31;;;;;;;28.07;13.50;;;7.60;99.90;;;;;;7288335;19;20193;-77
2023/11/18 00:37:58;;;;;;;27.20;13.57;;;7.60;99.90;;;;;;7285391;19;20195;-76
2023/11/18 00:40:25;;;;;;;26.60;13.53;;;7.50;99.90;;;;;;7287864;19;20197;-78
2023/11/18 00:42:51;;;;;;;27.03;12.80;;;7.50;99.90;;;;;;7287272;19;20193;-78
2023/11/18 00:45:18;;;;;;;27.53;13.27;;;7.50;99.90;;;;;;7287091;19;20213;-77
2023/11/18 00:47:43;;;;;;;27.20;12.47;;;7.60;99.90;;;;;;7286292;19;20180;-77
2023/11/18 00:50:09;;;;;;;23.70;12.30;;;7.70;99.90;;;;;;7286091;19;20189;-77
2023/11/18 00:52:38;;;;;;;23.37;11.87;;;7.70;99.90;;;;;;7305429;19;20229;-77
2023/11/18 00:55:06;;;;;;;25.13;11.30;;;7.80;99.90;;;;;;7308015;19;20196;-77
2023/11/18 00:57:32;;;;;;;26.57;12.03;;;7.90;99.90;;;;;;7286408;19;20184;-78
2023/11/18 00:59:58;;;;;;;20.03;10.90;;;8.00;99.90;;;;;;7287316;19;20208;-77
2023/11/18 01:02:24;;;;;;;22.63;11.47;;;8.10;99.90;;;;;;7284618;19;20189;-77
2023/11/18 01:04:50;;;;;;;24.83;11.97;;;8.20;99.90;;;;;;7284263;19;20193;-78
2023/11/18 01:07:16;;;;;;;25.50;12.03;;;8.40;99.90;;;;;;7285006;19;20208;-77
2023/11/18 01:09:42;;;;;;;26.93;11.80;;;8.40;99.90;;;;;;7285462;19;20810;-78
2023/11/18 01:12:09;;;;;;;20.13;10.57;;;8.60;99.90;;;;;;7284322;19;20206;-77
2023/11/18 01:14:39;;;;;;;23.13;10.90;;;8.70;99.90;;;;;;7308153;19;20222;-77
2023/11/18 01:17:11;;;;;;;21.47;9.93;;;8.60;99.90;;;;;;7286283;19;20189;-77
2023/11/18 01:19:37;;;;;;;21.87;9.70;;;8.60;99.90;;;;;;7264000;19;20193;-77
2023/11/18 01:22:05;;;;;;;21.60;9.10;;;8.60;99.90;;;;;;7307474;19;20185;-77
2023/11/18 01:24:32;;;;;;;20.30;9.13;;;8.70;99.90;;;;;;7286139;19;20193;-77
2023/11/18 01:26:59;;;;;;;22.43;9.53;;;8.80;99.90;;;;;;7283286;19;20194;-77
2023/11/18 01:29:25;;;;;;;19.37;8.87;;;8.80;99.90;;;;;;7285690;19;20709;-77
2023/11/18 01:31:52;;;;;;;21.83;9.00;;;8.90;99.90;;;;;;7285747;19;20195;-77
2023/11/18 01:34:21;;;;;;;21.00;8.27;;;8.70;99.90;;;;;;7286232;19;21003;-78
2023/11/18 01:36:49;;;;;;;19.50;8.23;;;8.50;99.90;;;;;;7285447;19;20194;-77
2023/11/18 01:39:17;;;;;;;21.77;8.50;;;8.40;99.90;;;;;;7285412;19;20185;-77
2023/11/18 01:41:44;;;;;;;19.73;7.80;;;8.30;99.90;;;;;;7284682;19;20691;-77
2023/11/18 01:44:10;;;;;;;18.03;8.03;;;8.30;99.90;;;;;;7284042;19;20182;-77
2023/11/18 01:46:36;;;;;;;23.73;7.63;;;8.20;99.90;;;;;;7293092;19;20594;-78
2023/11/18 01:49:03;;;;;;;19.33;7.63;;;8.20;99.90;;;;;;7308143;19;20192;-77
2023/11/18 01:51:30;;;;;;;19.67;8.10;;;8.20;99.90;;;;;;7285036;19;20656;-78
2023/11/18 01:53:59;;;;;;;19.60;7.60;;;8.20;99.90;;;;;;7284844;19;20206;-77
2023/11/18 01:56:26;;;;;;;17.90;8.10;;;8.10;99.90;;;;;;7284726;19;21730;-78
2023/11/18 01:58:52;;;;;;;20.37;7.80;;;8.00;99.90;;;;;;7284457;19;20561;-78
2023/11/18 02:01:19;;;;;;;15.40;6.87;;;8.10;99.90;;;;;;7283964;19;20200;-78
2023/11/18 02:03:45;;;;;;;18.60;8.03;;;8.20;99.90;;;;;;7283783;19;20177;-78
2023/11/18 02:06:13;;;;;;;20.83;6.83;;;8.20;99.90;;;;;;7283258;19;20239;-78
2023/11/18 02:08:39;;;;;;;18.30;6.50;;;8.20;99.90;;;;;;7285002;19;20543;-77
2023/11/18 02:11:31;;;;;;;18.60;6.20;;;8.20;99.90;;;;;;7306609;19;20182;-78
2023/11/18 02:14:02;;;;;;;17.13;6.30;;;8.40;99.90;;;;;;7179744;19;2004550;-78
2023/11/18 02:16:29;;;;;;;15.93;5.87;;;8.30;99.90;;;;;;7284294;19;20525;-78
2023/11/18 02:18:55;;;;;;;14.50;5.60;;;8.30;99.90;;;;;;7283988;19;20269;-78
2023/11/18 02:21:23;;;;;;;16.47;6.53;;;8.30;99.90;;;;;;7283134;19;20644;-77
2023/11/18 02:23:49;;;;;;;14.30;5.53;;;8.40;99.90;;;;;;7282732;19;20644;-78
2023/11/18 02:26:22;;;;;;;18.93;5.90;;;8.30;99.90;;;;;;7282777;19;20196;-78
2023/11/18 02:28:49;;;;;;;13.43;5.13;;;8.30;99.90;;;;;;7282063;19;20261;-77
2023/11/18 02:31:25;;;;;;;16.07;5.57;;;8.30;99.90;;;;;;7281977;19;20649;-78
2023/11/18 02:33:57;;;;;;;15.33;6.03;;;8.20;99.90;;;;;;7282326;19;20207;-78
2023/11/18 02:36:39;;;;;;;17.07;5.40;;;8.20;99.90;;;;;;7283179;19;20188;-78
2023/11/18 02:39:10;;;;;;;15.47;5.50;;;8.20;99.90;;;;;;7288307;19;20189;-78
2023/11/18 02:41:39;;;;;;;15.83;5.03;;;8.10;99.90;;;;;;7275973;19;20182;-78
2023/11/18 02:44:09;;;;;;;13.40;5.23;;;8.10;99.90;;;;;;7312056;19;20180;-78
2023/11/18 02:46:37;;;;;;;17.27;5.27;;;8.10;99.90;;;;;;7287254;19;20221;-79
2023/11/18 02:49:03;;;;;;;15.07;5.33;;;8.10;99.90;;;;;;7311574;19;20658;-79
2023/11/18 02:51:31;;;;;;;12.27;4.70;;;8.20;99.90;;;;;;7289219;19;20189;-78
2023/11/18 02:53:57;;;;;;;15.23;4.90;;;8.10;99.90;;;;;;7288936;19;20246;-78
2023/11/18 02:56:23;;;;;;;14.20;4.73;;;8.10;99.90;;;;;;7289167;19;20193;-78
2023/11/18 02:58:49;;;;;;;16.57;4.77;;;8.10;99.90;;;;;;7290042;19;20189;-78
2023/11/18 03:01:14;;;;;;;13.67;4.83;;;8.00;99.90;;;;;;7288576;19;20189;-79
2023/11/18 03:03:42;;;;;;;14.57;4.90;;;8.10;99.90;;;;;;7288805;19;20285;-78
2023/11/18 03:06:09;;;;;;;13.67;4.23;;;8.10;99.90;;;;;;7288926;19;20193;-78
2023/11/18 03:08:34;;;;;;;12.37;4.03;;;8.10;99.90;;;;;;7311031;19;20640;-78
2023/11/18 03:11:00;;;;;;;12.50;4.47;;;8.10;99.90;;;;;;7290219;19;20199;-78
2023/11/18 03:13:26;;;;;;;13.43;4.07;;;8.10;99.90;;;;;;7288474;19;20191;-78
2023/11/18 03:15:52;;;;;;;14.67;4.30;;;8.20;99.90;;;;;;7290299;19;20295;-78
2023/11/18 03:18:17;;;;;;;16.60;4.33;;;8.40;99.90;;;;;;7289243;19;20675;-78
2023/11/18 03:20:43;;;;;;;11.93;3.80;;;8.50;99.90;;;;;;7288901;19;20190;-78
2023/11/18 03:23:09;;;;;;;12.53;4.03;;;8.50;99.90;;;;;;7287419;19;20198;-79
2023/11/18 03:25:35;;;;;;;13.93;3.87;;;8.60;99.90;;;;;;7311000;19;20692;-78
2023/11/18 03:28:01;;;;;;;11.67;3.50;;;8.60;99.90;;;;;;7289754;19;20184;-79
2023/11/18 03:30:28;;;;;;;11.07;3.77;;;8.70;99.90;;;;;;7289400;19;20195;-78
2023/11/18 03:32:55;;;;;;;9.50;2.93;;;8.70;99.90;;;;;;7287641;19;20185;-78
2023/11/18 03:35:20;;;;;;;12.97;3.40;;;8.70;99.90;;;;;;7288425;19;20246;-78
2023/11/18 03:37:46;;;;;;;11.37;3.07;;;8.70;99.90;;;;;;7288577;19;20579;-78
2023/11/18 03:40:13;;;;;;;16.40;3.67;;;8.80;99.90;;;;;;7288712;19;20185;-78
2023/11/18 03:42:40;;;;;;;12.60;3.17;;;8.80;99.90;;;;;;7288315;19;20193;-78
2023/11/18 03:45:06;;;;;;;13.73;3.40;;;8.60;99.90;;;;;;7309439;19;20263;-78
2023/11/18 03:47:33;;;;;;;13.50;3.20;;;8.60;99.90;;;;;;7304606;19;20192;-78
2023/11/18 03:49:59;;;;;;;14.57;3.33;;;8.60;99.90;;;;;;7287036;19;20194;-78
2023/11/18 03:52:25;;;;;;;14.57;3.37;;;8.60;99.90;;;;;;7287124;19;20202;-78
2023/11/18 03:54:51;;;;;;;11.63;3.10;;;8.60;99.90;;;;;;7288143;19;20221;-78
2023/11/18 03:57:17;;;;;;;15.43;2.90;;;8.60;99.90;;;;;;7286440;19;20252;-78
2023/11/18 03:59:42;;;;;;;12.90;2.57;;;8.70;99.90;;;;;;7288134;19;20194;-78
2023/11/18 04:02:10;;;;;;;13.17;2.43;;;8.70;99.90;;;;;;7288090;19;20178;-78
2023/11/18 04:04:37;;;;;;;14.33;2.77;;;8.80;99.90;;;;;;7298650;19;20229;-79
2023/11/18 04:07:04;;;;;;;10.70;2.60;;;8.90;99.90;;;;;;7309815;19;20218;-79
2023/11/18 04:09:31;;;;;;;11.33;2.43;;;8.90;99.90;;;;;;7288236;19;20193;-78
2023/11/18 04:11:58;;;;;;;12.27;2.20;;;8.90;99.90;;;;;;7286819;19;20174;-78
2023/11/18 04:14:25;;;;;;;10.93;2.10;;;8.90;99.90;;;;;;7286586;19;20201;-79
2023/11/18 04:16:51;;;;;;;14.13;2.20;;;9.00;99.90;;;;;;7287011;19;20198;-79
2023/11/18 04:19:17;;;;;;;11.07;2.30;;;9.00;99.90;;;;;;7290690;19;20209;-78
2023/11/18 04:21:47;;;;;;;13.90;2.20;;;9.00;99.90;;;;;;7292214;19;20184;-79
2023/11/18 04:24:14;;;;;;;10.57;2.33;;;8.90;99.90;;;;;;7292783;19;20302;-78
2023/11/18 04:26:40;;;;;;;13.37;2.30;;;8.80;99.90;;;;;;7293182;19;20222;-79
2023/11/18 04:29:06;;;;;;;12.30;2.20;;;8.80;99.90;;;;;;7305920;19;20197;-79
2023/11/18 04:31:34;;;;;;;13.83;2.13;;;8.80;99.90;;;;;;7298851;19;20567;-79
2023/11/18 04:33:59;;;;;;;9.63;2.90;;;9.00;99.90;;;;;;7287634;19;20177;-78
2023/11/18 04:36:26;;;;;;;11.97;2.33;;;8.90;99.90;;;;;;7287033;19;20200;-79
2023/11/18 04:38:52;;;;;;;11.27;2.63;;;8.90;99.90;;;;;;7286727;19;20691;-79
2023/11/18 04:41:18;;;;;;;13.93;2.40;;;9.00;99.90;;;;;;7285324;19;20199;-79
2023/11/18 04:43:43;;;;;;;11.13;2.03;;;9.00;99.90;;;;;;7283311;19;20555;-78
2023/11/18 04:46:10;;;;;;;13.40;2.17;;;9.00;99.90;;;;;;7282234;19;20277;-78
2023/11/18 04:48:36;;;;;;;9.47;1.97;;;9.00;99.90;;;;;;7306045;19;20305;-78
2023/11/18 04:51:02;;;;;;;14.30;2.20;;;9.00;99.90;;;;;;7297229;19;20716;-78
2023/11/18 04:53:28;;;;;;;8.77;2.03;;;9.00;99.90;;;;;;7286100;19;20190;-79
2023/11/18 04:55:53;;;;;;;12.87;1.97;;;9.10;99.90;;;;;;7284759;19;20304;-79
2023/11/18 04:58:19;;;;;;;14.43;1.93;;;9.10;99.90;;;;;;7285858;19;20637;-78
2023/11/18 05:00:45;;;;;;;12.13;1.70;;;9.00;99.90;;;;;;7284158;19;20189;-78
2023/11/18 05:03:12;;;;;;;9.10;1.80;;;9.00;99.90;;;;;;7284093;19;20505;-78
2023/11/18 05:05:39;;;;;;;9.10;1.87;;;9.00;99.90;;;;;;7284367;19;20184;-79
2023/11/18 05:08:20;;;;;;;11.07;1.90;;;9.00;99.90;;;;;;7309186;19;20277;-78
2023/11/18 05:10:47;;;;;;;12.93;1.87;;;9.10;99.90;;;;;;7183642;19;2004398;-78
2023/11/18 05:13:16;;;;;;;10.77;1.50;;;9.10;99.90;;;;;;7284791;19;20185;-78
2023/11/18 05:15:46;;;;;;;12.80;1.70;;;9.20;99.90;;;;;;7286285;19;20182;-78
2023/11/18 05:18:14;;;;;;;14.93;2.03;;;9.20;99.90;;;;;;7285148;19;20187;-78
2023/11/18 05:20:44;;;;;;;9.00;2.63;;;9.20;99.90;;;;;;7281435;19;20182;-79
2023/11/18 05:23:09;;;;;;;10.43;1.83;;;9.10;99.90;;;;;;7283712;19;20185;-78
2023/11/18 05:25:36;;;;;;;11.00;1.70;;;9.20;99.90;;;;;;7305850;19;20189;-79
2023/11/18 05:28:03;;;;;;;10.37;1.67;;;9.20;99.90;;;;;;7285458;19;20184;-78
2023/11/18 05:30:30;;;;;;;13.83;2.50;;;9.20;99.90;;;;;;7282206;19;20647;-79
2023/11/18 05:32:58;;;;;;;11.33;1.97;;;9.30;99.90;;;;;;7284139;19;20663;-79
2023/11/18 05:35:28;;;;;;;5.43;1.50;;;9.40;99.90;;;;;;7284875;19;20215;-79
2023/11/18 05:37:54;;;;;;;9.13;2.00;;;9.40;99.90;;;;;;7284405;19;20190;-79
2023/11/18 05:40:20;;;;;;;14.70;2.10;;;9.30;99.90;;;;;;7284317;19;20189;-79
2023/11/18 05:42:48;;;;;;;17.00;1.90;;;9.30;99.90;;;;;;7283751;19;20521;-79
2023/11/18 05:45:27;;;;;;;11.83;2.03;;;9.40;99.90;;;;;;7284070;19;20208;-79
2023/11/18 05:47:57;;;;;;;10.97;1.70;;;9.50;99.90;;;;;;7285724;19;20257;-79
2023/11/18 05:50:26;;;;;;;11.73;2.17;;;9.40;99.90;;;;;;7284744;19;20554;-79
2023/11/18 05:52:53;;;;;;;9.20;1.90;;;9.30;99.90;;;;;;7283762;19;20182;-78
2023/11/18 05:55:19;;;;;;;12.30;2.17;;;9.40;99.90;;;;;;7284411;19;20705;-79
2023/11/18 05:57:45;;;;;;;10.33;2.07;;;9.40;99.90;;;;;;7283407;19;20188;-79
2023/11/18 06:00:15;;;;;;;9.07;2.07;;;9.40;99.90;;;;;;7283805;19;20648;-78
2023/11/18 06:02:42;;;;;;;9.00;2.00;;;9.40;99.90;;;;;;7282983;19;20186;-78
2023/11/18 06:05:09;;;;;;;10.83;2.40;;;9.40;99.90;;;;;;7290076;19;20188;-78
2023/11/18 06:07:34;;;;;;;11.17;1.87;;;9.50;99.90;;;;;;7306195;19;20570;-78
2023/11/18 06:10:05;;;;;;;12.10;2.13;;;9.50;99.90;;;;;;7285150;19;20189;-79
2023/11/18 06:12:31;;;;;;;9.70;2.07;;;9.50;99.90;;;;;;7283310;19;20194;-79
2023/11/18 06:14:58;;;;;;;15.13;2.17;;;9.50;99.90;;;;;;7284337;19;20327;-79
2023/11/18 06:17:23;;;;;;;12.40;2.00;;;9.60;99.90;;;;;;7284102;19;20193;-79
2023/11/18 06:19:49;;;;;;;12.83;2.47;;;9.60;99.90;;;;;;7283641;19;20189;-79
2023/11/18 06:22:15;;;;;;;8.43;2.00;;;9.70;99.90;;;;;;7283174;19;20186;-79
2023/11/18 06:24:41;;;;;;;13.17;2.30;;;9.70;99.90;;;;;;7282787;19;20186;-78
2023/11/18 06:27:08;;;;;;;11.93;2.80;;;9.70;99.90;;;;;;7299922;19;20194;-78
2023/11/18 06:29:34;;;;;;;9.67;2.07;;;9.80;99.90;;;;;;7305658;19;20190;-79
2023/11/18 06:32:00;;;;;;;13.33;2.20;;;9.80;99.90;;;;;;7283846;19;20187;-79
2023/11/18 06:34:26;;;;;;;14.83;1.90;;;9.70;99.90;;;;;;7284354;19;20234;-79
2023/11/18 06:36:53;;;;;;;14.47;2.60;;;9.60;99.90;;;;;;7283786;19;20194;-79
2023/11/18 06:39:21;;;;;;;12.67;2.53;;;9.50;99.90;;;;;;7281942;19;20208;-79
2023/11/18 06:41:51;;;;;;;11.60;2.47;;;9.60;99.90;;;;;;7282069;19;20260;-79
2023/11/18 06:44:23;;;;;;;9.23;2.23;;;9.60;99.90;;;;;;7282634;19;20194;-79
2023/11/18 06:46:50;;;;;;;9.40;2.50;;;9.60;99.90;;;;;;7283128;19;20262;-78
2023/11/18 06:49:16;;;;;;;10.37;2.00;;;9.70;99.90;;;;;;7283188;19;20189;-79
2023/11/18 06:51:43;;;;;;;9.70;2.20;;;9.60;99.90;;;;;;7281809;19;20198;-78
2023/11/18 06:54:09;;;;;;;12.90;2.43;;;9.60;99.90;;;;;;7282902;19;20194;-77
2023/11/18 06:56:37;;;;;;;10.33;2.33;;;9.70;99.90;;;;;;7305021;19;20267;-78
2023/11/18 06:59:06;;;;;;;12.17;2.83;;;9.60;99.90;;;;;;7282054;19;20586;-77
2023/11/18 07:01:35;;;;;;;10.70;2.27;;;9.70;99.90;;;;;;7281466;19;20670;-77
2023/11/18 07:04:02;;;;;;;14.27;2.43;;;9.70;99.90;;;;;;7283203;19;20246;-79
2023/11/18 07:06:27;;;;;;;9.60;2.80;;;9.70;99.90;;;;;;7283180;19;20676;-78
2023/11/18 07:09:00;;;;;;;13.93;2.70;;;9.70;99.90;;;;;;7282076;19;20214;-78
2023/11/18 07:11:26;;;;;;;14.17;3.37;;;9.70;99.90;;;;;;7281659;19;20277;-77
2023/11/18 07:13:56;;;;;;;14.10;5.33;;;9.80;99.90;;;;;;7282572;19;20182;-78
2023/11/18 07:16:23;;;;;;;12.97;3.40;;;9.80;99.90;;;;;;7282296;19;20601;-79
2023/11/18 07:18:49;;;;;;;13.33;3.00;;;9.80;99.90;;;;;;7278194;19;20197;-78
2023/11/18 07:21:14;;;;;;;12.77;3.23;;;9.70;99.90;;;;;;7281810;19;20645;-78
2023/11/18 07:23:42;;;;;;;13.93;3.40;;;9.60;99.90;;;;;;7281181;19;20194;-76
2023/11/18 07:26:09;;;;;;;10.93;3.50;;;9.60;99.90;;;;;;7292570;19;20639;-76
2023/11/18 07:28:35;;;;;;;13.87;3.50;;;9.60;99.90;;;;;;7309778;19;20196;-78
2023/11/18 07:31:04;;;;;;;11.33;3.60;;;9.70;99.90;;;;;;7289833;19;20595;-78
2023/11/18 07:33:32;;;;;;;12.60;4.03;;;9.60;99.90;;;;;;7288050;19;20692;-78
2023/11/18 07:35:58;;;;;;;12.40;3.93;;;9.50;99.90;;;;;;7288634;19;20199;-78
2023/11/18 07:38:24;;;;;;;15.50;4.30;;;9.50;99.90;;;;;;7289414;19;20524;-78
2023/11/18 07:40:52;;;;;;;14.27;4.37;;;9.40;99.90;;;;;;7288422;19;20633;-83
2023/11/18 07:43:21;;;;;;;19.47;4.80;;;9.40;99.90;;;;;;7289938;19;20215;-86
2023/11/18 07:45:50;;;;;;;19.27;5.00;;;9.40;99.90;;;;;;7290123;19;20195;-85
2023/11/18 07:48:17;;;;;;;19.10;5.47;;;9.50;99.90;;;;;;7288888;19;20207;-86
2023/11/18 07:50:44;;;;;;;18.40;5.20;;;9.50;99.90;;;;;;7289390;19;20677;-86
2023/11/18 07:53:11;;;;;;;17.27;5.20;;;9.50;99.90;;;;;;7290055;19;20185;-85
2023/11/18 07:55:40;;;;;;;15.30;6.00;;;9.40;99.90;;;;;;7311645;19;20261;-85
2023/11/18 07:58:12;;;;;;;18.13;5.60;;;9.40;99.90;;;;;;7312406;19;20189;-86
2023/11/18 08:00:39;;;;;;;16.43;6.27;;;9.30;99.90;;;;;;7265618;19;20208;-86
2023/11/18 08:03:12;;;;;;;17.00;6.03;;;9.30;99.90;;;;;;7310593;19;20216;-86
2023/11/18 08:05:43;;;;;;;23.00;8.53;;;9.30;99.90;;;;;;7274068;19;20725;-85
2023/11/18 08:08:12;;;;;;;23.90;8.67;;;9.30;99.90;;;;;;7290064;19;20185;-86
2023/11/18 08:10:40;;;;;;;21.33;8.80;;;9.30;99.90;;;;;;7288363;19;20194;-86
2023/11/18 08:13:07;;;;;;;19.83;7.17;;;9.30;99.90;;;;;;7311775;19;20682;-86
2023/11/18 08:15:40;;;;;;;19.97;8.40;;;9.30;99.90;;;;;;7290403;19;20190;-85
2023/11/18 08:18:06;;;;;;;19.07;9.77;;;9.20;99.90;;;;;;7290670;19;20193;-85
2023/11/18 08:20:33;;;;;;;17.30;7.27;;;9.20;99.90;;;;;;7288975;19;20201;-86
2023/11/18 08:22:59;;;;;;;21.93;8.17;;;9.10;99.90;;;;;;7287980;19;20197;-87
2023/11/18 08:25:25;;;;;;;18.10;7.20;;;9.00;99.90;;;;;;7289331;19;20671;-82
2023/11/18 08:27:51;;;;;;;18.77;7.83;;;8.90;99.90;;;;;;7287982;19;20193;-81
2023/11/18 08:30:18;;;;;;;22.53;7.83;;;9.00;99.90;;;;;;7287222;19;20189;-84
2023/11/18 08:32:45;;;;;;;21.03;7.70;;;9.00;99.90;;;;;;7287280;19;20274;-81
2023/11/18 08:35:15;;;;;;;19.77;7.33;;;9.00;99.90;;;;;;7287377;19;20230;-80
2023/11/18 08:37:42;;;;;;;18.53;7.17;;;9.00;99.90;;;;;;7287945;19;20207;-85
2023/11/18 08:40:14;;;;;;;16.80;7.00;;;9.10;99.90;;;;;;7294092;19;20204;-86
2023/11/18 08:42:49;;;;;;;16.77;6.77;;;9.10;99.90;;;;;;7288043;19;20252;-85
2023/11/18 08:45:16;;;;;;;16.63;6.87;;;9.00;99.90;;;;;;7288939;19;20200;-79
2023/11/18 08:47:46;;;;;;;25.07;7.50;;;9.10;99.90;;;;;;7285345;19;20185;-80
2023/11/18 08:50:18;;;;;;;17.67;7.33;;;9.10;99.90;;;;;;7287638;19;20213;-87
2023/11/18 08:52:46;;;;;;;20.63;6.73;;;9.10;99.90;;;;;;7287811;19;20222;-83
2023/11/18 08:55:18;;;;;;;17.30;6.80;;;9.10;99.90;;;;;;7283131;19;20202;-85
2023/11/18 08:57:59;;;;;;;15.70;6.23;;;9.20;99.90;;;;;;7284445;19;20193;-87
2023/11/18 09:03:17;;;;;;;15.50;6.03;;;9.40;99.90;;;;;;7286899;19;20303;-86
2023/11/18 09:05:59;;;;;;;14.90;5.27;;;9.50;99.90;;;;;;7286706;19;20191;-82
2023/11/18 09:08:29;;;;;;;16.57;6.03;;;9.40;99.90;;;;;;7288291;19;20189;-86
2023/11/18 09:10:59;;;;;;;14.30;5.93;;;9.30;99.90;;;;;;7285602;19;20194;-85
2023/11/18 09:13:29;;;;;;;15.90;6.53;;;9.30;99.90;;;;;;7286969;19;20200;-84
2023/11/18 09:16:00;;;;;;;16.80;7.63;;;9.30;99.90;;;;;;7287925;19;20201;-86
2023/11/18 09:18:30;;;;;;;18.60;8.27;;;9.40;99.90;;;;;;7286801;19;20190;-84
2023/11/18 09:20:59;;;;;;;17.20;8.10;;;9.40;99.90;;;;;;7288939;19;20200;-84
2023/11/18 09:23:27;;;;;;;17.03;7.60;;;9.30;99.90;;;;;;7287622;19;20204;-85
2023/11/18 09:25:53;;;;;;;15.10;7.20;;;9.30;99.90;;;;;;7287129;19;20212;-85
2023/11/18 09:28:20;;;;;;;19.40;8.27;;;9.40;99.90;;;;;;7287236;19;20186;-84
2023/11/18 09:30:49;;;;;;;21.80;9.17;;;9.40;99.90;;;;;;7287193;19;20201;-85
2023/11/18 09:33:32;;;;;;;16.90;7.17;;;9.40;99.90;;;;;;7286294;19;20193;-84
2023/11/18 09:36:12;;;;;;;20.87;8.00;;;9.40;99.90;;;;;;7287385;19;20184;-84
2023/11/18 09:38:40;;;;;;;13.23;7.20;;;9.40;99.90;;;;;;7278076;19;20199;-84
2023/11/18 09:41:13;;;;;;;12.50;6.47;;;9.40;99.90;;;;;;7288060;19;20178;-85
2023/11/18 09:43:46;;;;;;;14.27;7.37;;;9.40;99.90;;;;;;7287035;19;20187;-85
2023/11/18 09:46:23;;;;;;;20.17;7.17;;;9.40;99.90;;;;;;7284505;19;20265;-87
2023/11/18 09:48:53;;;;;;;18.77;8.73;;;9.50;99.90;;;;;;7284869;19;20191;-87
2023/11/18 09:51:22;;;;;;;17.30;7.10;;;9.50;99.90;;;;;;7282956;19;20666;-87
2023/11/18 09:54:00;;;;;;;15.43;7.60;;;9.40;99.90;;;;;;7286886;19;20191;-87
2023/11/18 09:56:45;;;;;;;19.67;8.53;;;9.40;99.90;;;;;;7286373;19;20211;-87
2023/11/18 09:59:23;;;;;;;18.60;8.17;;;9.50;99.90;;;;;;7262965;19;20181;-87
2023/11/18 10:01:57;;;;;;;16.70;7.20;;;9.40;99.90;;;;;;7285364;19;20199;-88
2023/11/18 10:04:27;;;;;;;18.37;8.07;;;9.40;99.90;;;;;;7284209;19;20262;-87
2023/11/18 10:06:54;;;;;;;14.90;7.90;;;9.40;99.90;;;;;;7284620;19;20524;-86
2023/11/18 10:09:28;;;;;;;16.23;8.33;;;9.40;99.90;;;;;;7286182;19;20191;-86
2023/11/18 10:12:00;;;;;;;17.73;8.27;;;9.40;99.90;;;;;;7283835;19;20200;-87
2023/11/18 10:14:29;;;;;;;17.47;8.93;;;9.40;99.90;;;;;;7286457;19;20198;-86
2023/11/18 10:16:55;;;;;;;14.57;7.10;;;9.50;99.90;;;;;;7285879;19;20204;-85
2023/11/18 10:19:21;;;;;;;16.90;8.00;;;9.40;99.90;;;;;;7291040;19;20258;-87
2023/11/18 10:21:49;;;;;;;16.23;7.30;;;9.30;99.90;;;;;;7284319;19;20788;-87
2023/11/18 10:24:19;;;;;;;17.90;7.77;;;9.40;99.90;;;;;;7283700;19;20197;-86
2023/11/18 10:26:57;;;;;;;18.80;7.70;;;9.50;99.90;;;;;;7283355;19;20197;-86
2023/11/18 10:29:27;;;;;;;17.40;6.73;;;9.50;99.90;;;;;;7284753;19;20556;-86
2023/11/18 10:32:15;;;;;;;14.13;6.00;;;9.40;99.90;;;;;;7284733;19;20189;-86
2023/11/18 10:34:42;;;;;;;16.27;6.63;;;9.40;99.90;;;;;;7261438;19;20186;-86
2023/11/18 10:37:10;;;;;;;12.23;5.17;;;9.50;99.90;;;;;;7290473;19;20200;-86
2023/11/18 10:39:36;;;;;;;15.57;5.83;;;9.50;99.90;;;;;;7307193;19;20185;-86
2023/11/18 10:42:03;;;;;;;12.20;5.13;;;9.60;99.90;;;;;;7286016;19;20233;-87
2023/11/18 10:44:29;;;;;;;12.73;4.57;;;9.60;99.90;;;;;;7279920;19;20214;-85
2023/11/18 10:46:59;;;;;;;8.53;4.50;;;9.70;99.90;;;;;;7278100;19;20202;-84
2023/11/18 10:49:28;;;;;;;9.40;3.93;;;9.70;99.90;;;;;;7285909;19;20190;-85
2023/11/18 10:51:56;;;;;;;9.93;3.53;;;9.70;99.90;;;;;;7283650;19;20187;-84
2023/11/18 10:54:22;;;;;;;12.20;3.33;;;9.70;99.90;;;;;;7280212;19;20218;-84
2023/11/18 10:56:49;;;;;;;12.37;3.00;;;9.60;99.90;;;;;;7281068;19;20636;-84
2023/11/18 10:59:19;;;;;;;8.00;2.93;;;9.60;99.90;;;;;;7265073;19;20207;-83
2023/11/18 11:01:48;;;;;;;7.93;2.83;;;9.60;99.90;;;;;;7172363;19;20650;-83
2023/11/18 11:04:20;;;;;;;8.27;2.63;;;9.70;99.90;;;;;;7282441;19;20657;-84
2023/11/18 11:06:56;;;;;;;7.53;2.63;;;9.70;99.90;;;;;;7287871;19;20197;-83
2023/11/18 11:09:35;;;;;;;6.30;2.30;;;9.70;99.90;;;;;;7286128;19;20195;-83
2023/11/18 11:12:06;;;;;;;6.30;2.33;;;9.70;99.90;;;;;;7285837;19;20240;-81
2023/11/18 11:14:43;;;;;;;7.20;2.10;;;9.70;99.90;;;;;;7286193;19;20289;-89
2023/11/18 11:17:15;;;;;;;6.60;2.00;;;9.70;99.90;;;;;;7265079;19;20284;-80
2023/11/18 11:19:56;;;;;;;5.83;2.20;;;9.60;99.90;;;;;;7285719;19;20221;-81
2023/11/18 11:22:38;;;;;;;5.47;2.00;;;9.60;99.90;;;;;;7283803;19;20228;-82
2023/11/18 11:25:12;;;;;;;6.67;1.83;;;9.60;99.90;;;;;;7282461;19;21202;-81
2023/11/18 11:28:03;;;;;;;4.57;1.80;;;9.70;99.90;;;;;;7275923;19;20209;-82
2023/11/18 11:30:38;;;;;;;3.87;1.87;;;9.80;99.90;;;;;;7280555;19;20190;-81
2023/11/18 11:33:19;;;;;;;7.23;2.23;;;9.90;99.90;;;;;;7281721;19;20187;-81
2023/11/18 11:35:48;;;;;;;8.70;2.00;;;9.90;99.90;;;;;;7181332;19;2004899;-81
2023/11/18 11:38:16;;;;;;;8.43;1.80;;;9.80;99.90;;;;;;7280008;19;20190;-81
2023/11/18 11:40:42;;;;;;;7.87;1.80;;;9.90;99.90;;;;;;7284080;19;20801;-82
2023/11/18 11:43:10;;;;;;;5.37;1.60;;;9.90;99.90;;;;;;7289379;19;20298;-81
2023/11/18 11:45:38;;;;;;;6.07;2.10;;;10.00;99.90;;;;;;7302893;19;20198;-81
2023/11/18 11:48:19;;;;;;;5.13;1.53;;;10.00;99.90;;;;;;7283909;19;20198;-81
2023/11/18 11:51:14;;;;;;;4.70;1.40;;;10.00;99.90;;;;;;7181193;19;2004643;-81
2023/11/18 11:53:45;;;;;;;3.27;1.40;;;10.00;99.90;;;;;;7259243;19;20207;-81
2023/11/18 11:56:14;;;;;;;3.77;1.40;;;10.00;99.90;;;;;;7282693;19;20196;-81
2023/11/18 11:58:44;;;;;;;4.10;1.30;;;10.00;99.90;;;;;;7280974;19;21010;-81
2023/11/18 12:01:33;;;;;;;4.20;1.70;;;10.00;99.90;;;;;;7283184;19;20277;-82
2023/11/18 12:04:04;;;;;;;4.47;1.67;;;10.00;99.90;;;;;;7281398;19;20190;-81
2023/11/18 12:06:32;;;;;;;6.03;1.77;;;10.10;99.90;;;;;;7283398;19;20211;-82
2023/11/18 12:08:58;;;;;;;4.63;1.40;;;10.10;99.90;;;;;;7281868;19;20205;-82
2023/11/18 12:11:24;;;;;;;3.53;1.40;;;10.10;99.90;;;;;;7282753;19;20195;-82
2023/11/18 12:14:41;;;;;;;3.20;1.30;;;10.10;99.90;;;;;;7284675;19;20553;-82
2023/11/18 12:17:20;;;;;;;2.47;1.20;;;10.00;99.90;;;;;;7181365;19;2006297;-82
2023/11/18 12:19:48;;;;;;;2.63;1.03;;;10.00;99.90;;;;;;7179662;19;2004917;-81
2023/11/18 12:22:29;;;;;;;2.87;1.00;;;10.00;99.90;;;;;;7281774;19;20254;-82
2023/11/18 12:24:58;;;;;;;2.30;0.90;;;10.10;99.90;;;;;;7282425;19;20687;-82
2023/11/18 12:27:51;;;;;;;3.97;1.10;;;10.00;99.90;;;;;;7283384;19;20189;-82
2023/11/18 12:30:23;;;;;;;3.10;1.13;;;10.20;99.90;;;;;;7180144;19;2004730;-84
2023/11/18 12:33:05;;;;;;;3.40;1.20;;;10.20;99.90;;;;;;7281721;19;20198;-82
2023/11/18 12:35:51;;;;;;;3.30;1.00;;;10.20;99.90;;;;;;7287046;19;20191;-83
2023/11/18 12:38:51;;;;;;;2.80;0.93;;;10.30;99.90;;;;;;7183202;19;2004529;-83
2023/11/18 12:41:39;;;;;;;3.33;1.20;;;10.30;99.90;;;;;;7182498;19;2006191;-83
2023/11/18 12:44:20;;;;;;;2.53;1.03;;;10.40;99.90;;;;;;7284638;19;20209;-79
2023/11/18 12:47:08;;;;;;;3.83;0.87;;;10.30;99.90;;;;;;7184085;19;2004797;-78
2023/11/18 12:49:40;;;;;;;3.80;1.13;;;10.40;99.90;;;;;;7285059;19;20186;-79
2023/11/18 12:52:14;;;;;;;2.70;0.97;;;10.50;99.90;;;;;;7287445;19;20312;-80
2023/11/18 12:54:43;;;;;;;3.03;1.10;;;10.40;99.90;;;;;;7263342;19;20192;-79
2023/11/18 12:57:13;;;;;;;2.53;0.90;;;10.40;99.90;;;;;;7284034;19;20261;-79
2023/11/18 12:59:40;;;;;;;2.33;1.00;;;10.40;99.90;;;;;;7285492;19;20198;-79